Flight Track Log - Related Links

Times and Time Zones

All times are in EDT time to prevent confusion due to time zone crossing. See the SWA189 flight status page for this flight to view local times or setup timezone preferences in your user account.

Time Position Orientation Groundspeed Altitude Reporting Facility
EDT Latitude Longitude Course Direction KTS MPH feet Rate Location/Type
Wed 10:19:46 PM 33.9461 -118.4578 54° Northeast 165 190 1,600  Level Los Angeles Center
Wed 10:20:47 PM 33.9406 -118.5267 264° West 206 237 3,600 2,829 Climbing Los Angeles Center
Wed 10:21:49 PM 33.8981 -118.5936 233° Southwest 261 300 7,400 3,194 Climbing Los Angeles Center
Wed 10:22:51 PM 33.8592 -118.5231 124° Southeast 310 357 10,200 2,274 Climbing Los Angeles Center
Wed 10:23:53 PM 33.9283 -118.4394 45° Northeast 355 409 12,100 2,000 Climbing Los Angeles Center
Wed 10:24:54 PM 33.9806 -118.3544 53° Northeast 384 442 14,300 2,683 Climbing Los Angeles Center
Wed 10:25:00 PM 34.3290 -117.7239 54° Northeast  Level FlightAware Approximate
Wed 10:25:56 PM 34.0553 -118.2186 56° Northeast 401 461 17,600  Level Los Angeles Center
Wed 10:26:58 PM 34.1214 -118.1006 56° Northeast 418 481 20,200 2,419 Climbing Los Angeles Center
Wed 10:28:00 PM 34.1900 -117.9797 56° Northeast 432 497 22,600 2,244 Climbing Los Angeles Center
Wed 10:29:01 PM 34.2589 -117.8569 56° Northeast 442 509 24,800 1,951 Climbing Los Angeles Center
Wed 10:30:03 PM 34.3292 -117.7306 56° Northeast 451 519 26,600 1,887 Climbing Los Angeles Center
Wed 10:31:05 PM 34.4122 -117.5811 56° Northeast 461 531 28,700 1,610 Climbing Los Angeles Center
Wed 10:32:06 PM 34.4703 -117.4747 56° Northeast 470 541 29,900 1,403 Climbing Los Angeles Center
Wed 10:33:09 PM 34.5589 -117.3144 56° Northeast 480 552 31,600 1,597 Climbing Los Angeles Center
Wed 10:34:10 PM 34.6358 -117.1819 55° Northeast 485 558 33,200 1,415 Climbing Los Angeles Center
Wed 10:35:12 PM 34.7244 -117.0633 48° Northeast 480 552 34,500 1,324 Climbing Los Angeles Center
Wed 10:36:26 PM 34.8294 -116.9203 48° Northeast 477 549 36,200 1,103 Climbing Los Angeles Center
Wed 10:37:28 PM 34.9322 -116.7747 49° Northeast 477 549 37,000 387 Climbing Los Angeles Center
Wed 10:38:30 PM 35.0203 -116.6528 49° Northeast 479 551 37,000  Level Los Angeles Center
Wed 10:39:31 PM 35.1075 -116.5319 49° Northeast 479 551 37,000  Level Los Angeles Center
Wed 10:40:33 PM 35.1981 -116.4106 48° Northeast 481 554 37,000  Level Los Angeles Center
Wed 10:41:35 PM 35.2867 -116.2864 49° Northeast 484 557 37,000  Level Los Angeles Center
Wed 10:42:36 PM 35.3914 -116.1353 50° Northeast 478 550 37,000  Level Los Angeles Center
Wed 10:43:38 PM 35.4756 -116.0203 48° Northeast 466 536 37,000  Level Los Angeles Center
Wed 10:44:40 PM 35.5575 -115.9039 49° Northeast 452 520 37,000  Level Los Angeles Center
Wed 10:45:42 PM 35.6428 -115.7917 47° Northeast 459 528 37,000  Level Los Angeles Center
Wed 10:46:43 PM 35.7283 -115.6672 50° Northeast 469 540 37,000  Level Los Angeles Center
Wed 10:47:45 PM 35.8328 -115.5164 49° Northeast 480 552 37,000  Level Los Angeles Center
Wed 10:48:46 PM 35.9194 -115.3911 49° Northeast 484 557 37,000  Level Los Angeles Center
Wed 10:49:48 PM 35.9886 -115.2917 49° Northeast 483 556 37,000  Level Los Angeles Center
Wed 10:50:50 PM 36.0553 -115.1111 65° Northeast 491 565 37,000  Level Los Angeles Center
Wed 10:51:51 PM 36.0994 -114.9531 71° East 489 563 37,000  Level Los Angeles Center
Wed 10:52:53 PM 36.1458 -114.7936 70° East 494 568 37,000  Level Los Angeles Center
Wed 10:53:55 PM 36.2014 -114.6014 70° East 496 571 37,000  Level Los Angeles Center
Wed 10:54:57 PM 36.2469 -114.4397 71° East 498 573 37,000  Level Los Angeles Center
Wed 10:55:58 PM 36.2922 -114.2794 71° East 494 568 37,000  Level Los Angeles Center
Wed 10:57:00 PM 36.3378 -114.1183 71° East 496 571 37,000  Level Los Angeles Center
Wed 10:58:02 PM 36.3831 -113.9583 71° East 494 568 37,000  Level Los Angeles Center
Wed 10:59:03 PM 36.4269 -113.7992 71° East 489 563 37,000  Level Los Angeles Center
Wed 11:00:17 PM 36.4714 -113.6386 71° East 491 565 37,000  Level Los Angeles Center
Wed 11:01:19 PM 36.5258 -113.4403 71° East 495 570 37,000  Level Los Angeles Center
Wed 11:02:20 PM 36.5786 -113.2461 71° East 497 572 37,000  Level Los Angeles Center
Wed 11:03:22 PM 36.6228 -113.0861 71° East 493 567 37,000  Level Los Angeles Center
Wed 11:04:24 PM 36.6664 -112.9261 71° East 491 565 37,000  Level Los Angeles Center
Wed 11:05:25 PM 36.7094 -112.7650 72° East 492 566 37,000  Level Los Angeles Center
Wed 11:06:27 PM 36.7519 -112.6050 72° East 492 566 37,000  Level Los Angeles Center
Wed 11:07:29 PM 36.7944 -112.4450 72° East 490 564 37,000  Level Los Angeles Center
Wed 11:08:30 PM 36.8450 -112.2536 72° East 488 562 37,000  Level Los Angeles Center
Wed 11:09:32 PM 36.8861 -112.0947 72° East 485 558 37,000  Level Los Angeles Center
Wed 11:10:33 PM 36.9278 -111.9356 72° East 485 558 37,000  Level Los Angeles Center
Wed 11:11:35 PM 36.9689 -111.7778 72° East 482 555 37,000  Level Los Angeles Center
Wed 11:12:36 PM 37.0097 -111.6181 72° East 483 556 37,000  Level Los Angeles Center
Wed 11:12:57 PM 37.0286 -111.5514 70° East 487 560 37,000  Level Denver Center
Wed 11:13:58 PM 37.0658 -111.3925 74° East 481 554 37,000  Level Denver Center
Wed 11:14:59 PM 37.1081 -111.2314 72° East 487 560 37,000  Level Denver Center
Wed 11:16:00 PM 37.1472 -111.0694 73° East 488 562 37,000  Level Denver Center
Wed 11:17:01 PM 37.1875 -110.9083 73° East 488 562 37,000  Level Denver Center
Wed 11:18:03 PM 37.2272 -110.7464 73° East 488 562 37,000  Level Denver Center
Wed 11:19:04 PM 37.2756 -110.5519 73° East 489 563 37,000  Level Denver Center
Wed 11:20:05 PM 37.3153 -110.3883 73° East 491 565 37,000  Level Denver Center
Wed 11:21:06 PM 37.3542 -110.2261 73° East 488 562 37,000  Level Denver Center
Wed 11:22:07 PM 37.3947 -110.0569 73° East 489 563 37,000  Level Denver Center
Wed 11:23:09 PM 37.4319 -109.9000 73° East 489 563 37,000  Level Denver Center
Wed 11:24:10 PM 37.4736 -109.7458 71° East 487 560 37,000  Level Denver Center
Wed 11:25:11 PM 37.5406 -109.5758 64° Northeast 486 559 37,000  Level Denver Center
Wed 11:26:12 PM 37.5986 -109.4325 63° Northeast 481 554 37,000  Level Denver Center
Wed 11:27:14 PM 37.6658 -109.2633 63° Northeast 481 554 37,000  Level Denver Center
Wed 11:28:15 PM 37.7225 -109.1217 63° Northeast 476 548 37,000  Level Denver Center
Wed 11:29:16 PM 37.7564 -108.9647 75° East 486 559 37,000  Level Denver Center
Wed 11:30:18 PM 37.7947 -108.7825 75° East 482 555 37,000  Level Denver Center
Wed 11:31:19 PM 37.8294 -108.6269 74° East 480 552 37,000  Level Denver Center
Wed 11:32:20 PM 37.8633 -108.4728 74° East 477 549 37,000  Level Denver Center
Wed 11:33:21 PM 37.9025 -108.2914 75° East 477 549 37,000 480 Level Denver Center
Wed 11:34:25 PM 37.9367 -108.1344 75° East 482 555 38,000 829 Climbing Denver Center
Wed 11:35:24 PM 37.9753 -107.9494 75° East 484 557 38,700 500 Climbing Denver Center
Wed 11:36:25 PM 38.0089 -107.7914 75° East 486 559 39,000 146 Climbing Denver Center
Wed 11:37:27 PM 38.0422 -107.6303 75° East 490 564 39,000  Level Denver Center
Wed 11:38:28 PM 38.0811 -107.4433 75° East 492 566 39,000  Level Denver Center
Wed 11:39:29 PM 38.1128 -107.2925 75° East 484 557 39,000  Level Denver Center
Wed 11:40:31 PM 38.1464 -107.1306 75° East 483 556 39,000  Level Denver Center
Wed 11:41:32 PM 38.1789 -106.9656 76° East 484 557 39,000  Level Denver Center
Wed 11:42:33 PM 38.2186 -106.7667 76° East 484 557 39,000  Level Denver Center
Wed 11:43:35 PM 38.2506 -106.6103 75° East 481 554 39,000  Level Denver Center
Wed 11:44:36 PM 38.2839 -106.4389 76° East 481 554 39,000  Level Denver Center
Wed 11:45:37 PM 38.3164 -106.2742 76° East 480 552 39,000  Level Denver Center
Wed 11:46:39 PM 38.3517 -106.1028 75° East 484 557 39,000  Level Denver Center
Wed 11:47:40 PM 38.3833 -105.9422 76° East 487 560 39,000  Level Denver Center
Wed 11:48:41 PM 38.4175 -105.7569 77° East 483 556 39,000  Level Denver Center
Wed 11:49:42 PM 38.4486 -105.5953 76° East 487 560 39,000  Level Denver Center
Wed 11:50:44 PM 38.4789 -105.4350 76° East 487 560 39,000  Level Denver Center
Wed 11:51:45 PM 38.5144 -105.2464 76° East 488 562 39,000  Level Denver Center
Wed 11:52:46 PM 38.5447 -105.0833 77° East 490 564 39,000  Level Denver Center
Wed 11:53:47 PM 38.5783 -104.8972 77° East 485 558 39,000  Level Denver Center
Wed 11:54:49 PM 38.6075 -104.7378 77° East 481 554 39,000  Level Denver Center
Wed 11:55:50 PM 38.6361 -104.5775 77° East 482 555 39,000  Level Denver Center
Wed 11:56:51 PM 38.6692 -104.3936 77° East 477 549 39,000  Level Denver Center
Wed 11:57:52 PM 38.6961 -104.2344 78° East 477 549 39,000  Level Denver Center
Wed 11:58:54 PM 38.7244 -104.0769 77° East 475 547 39,000  Level Denver Center
Wed 11:59:55 PM 38.7569 -103.8922 77° East 474 545 39,000  Level Denver Center
Thu 12:00:56 AM 38.7831 -103.7328 78° East 477 549 39,000  Level Denver Center
Thu 12:01:57 AM 38.8111 -103.5736 77° East 479 551 39,000  Level Denver Center
Thu 12:02:59 AM 38.8431 -103.3878 77° East 477 549 39,000  Level Denver Center
Thu 12:04:00 AM 38.8697 -103.2281 78° East 478 550 39,000  Level Denver Center
Thu 12:05:01 AM 38.9008 -103.0414 78° East 478 550 39,000  Level Denver Center
Thu 12:06:02 AM 38.9228 -102.9089 78° East 477 549 39,000  Level Denver Center
Thu 12:07:03 AM 38.9558 -102.7044 78° East 484 557 39,000  Level Denver Center
Thu 12:08:05 AM 38.9817 -102.5419 78° East 485 558 39,000  Level Denver Center
Thu 12:09:06 AM 39.0131 -102.3514 78° East 487 560 39,000  Level Denver Center
Thu 12:10:07 AM 39.0383 -102.1897 79° East 484 557 39,000  Level Denver Center
Thu 12:11:08 AM 39.0636 -102.0247 79° East 488 562 39,000  Level Denver Center
Thu 12:12:09 AM 39.0936 -101.8356 78° East 484 557 39,000  Level Denver Center
Thu 12:13:11 AM 39.1183 -101.6792 78° East 482 555 39,000  Level Denver Center
Thu 12:14:12 AM 39.1472 -101.4889 79° East 485 558 39,000  Level Denver Center
Thu 12:15:13 AM 39.1711 -101.3275 79° East 482 555 39,000  Level Denver Center
Thu 12:16:14 AM 39.1953 -101.1633 79° East 487 560 39,000  Level Denver Center
Thu 12:17:15 AM 39.2242 -100.9739 79° East 484 557 39,000  Level Denver Center
Thu 12:18:16 AM 39.2472 -100.8103 80° East 485 558 39,000  Level Denver Center
Thu 12:19:17 AM 39.2747 -100.6222 79° East 481 554 39,000  Level Denver Center
Thu 12:20:19 AM 39.2981 -100.4589 79° East 483 556 39,000  Level Denver Center
Thu 12:21:20 AM 39.3208 -100.2981 80° East 478 550 39,000  Level Denver Center
Thu 12:22:21 AM 39.3472 -100.1075 80° East 482 555 39,000  Level Denver Center
Thu 12:23:22 AM 39.3692 -99.9433 80° East 485 558 39,000  Level Denver Center
Thu 12:24:23 AM 39.3956 -99.7525 80° East 484 557 39,000  Level Denver Center
Thu 12:25:24 AM 39.4178 -99.5914 80° East 480 552 39,000  Level Denver Center
Thu 12:26:25 AM 39.4392 -99.4294 80° East 480 552 39,000  Level Denver Center
Thu 12:27:26 AM 39.4622 -99.2564 80° East 483 556 39,000  Level Denver Center
Thu 12:28:28 AM 39.4844 -99.0853 80° East 484 557 39,000  Level Denver Center
Thu 12:29:29 AM 39.5069 -98.9139 80° East 484 557 39,000  Level Denver Center
Thu 12:30:30 AM 39.5278 -98.7389 81° East 490 564 39,000  Level Denver Center
Thu 12:31:11 AM 39.5464 -98.5953 80° East 493 567 39,000  Level Kansas City Center
Thu 12:32:12 AM 39.5644 -98.4431 81° East 490 564 39,000  Level Kansas City Center
Thu 12:33:13 AM 39.5864 -98.2661 81° East 492 566 39,000  Level Kansas City Center
Thu 12:34:14 AM 39.6119 -98.0556 81° East 492 566 39,000  Level Kansas City Center
Thu 12:35:15 AM 39.6336 -97.8794 81° East 493 567 39,000  Level Kansas City Center
Thu 12:35:54 AM 39.6433 -97.7964 81° East 489 563 39,000  Level Minneapolis Center
Thu 12:36:55 AM 39.6669 -97.5944 81° East 488 562 39,000  Level Minneapolis Center
Thu 12:37:17 AM 39.6731 -97.5514 80° East 485 558 39,000  Level Kansas City Center
Thu 12:38:18 AM 39.6925 -97.3772 82° East 486 559 39,000  Level Kansas City Center
Thu 12:39:19 AM 39.7131 -97.1883 82° East 482 555 39,000  Level Kansas City Center
Thu 12:40:20 AM 39.7328 -97.0158 81° East 481 554 39,000  Level Kansas City Center
Thu 12:41:21 AM 39.7506 -96.8458 82° East 474 545 39,000  Level Kansas City Center
Thu 12:42:22 AM 39.7683 -96.6836 82° East 474 545 39,000  Level Kansas City Center
Thu 12:43:22 AM 39.7889 -96.4950 82° East 472 543 39,000  Level Kansas City Center
Thu 12:44:23 AM 39.8061 -96.3253 82° East 474 545 39,000  Level Kansas City Center
Thu 12:45:24 AM 39.8242 -96.1508 82° East 481 554 39,000  Level Kansas City Center
Thu 12:46:25 AM 39.8422 -95.9725 82° East 477 549 39,000  Level Kansas City Center
Thu 12:47:26 AM 39.8586 -95.8114 82° East 475 547 39,000  Level Kansas City Center
Thu 12:48:27 AM 39.8758 -95.6439 82° East 484 557 39,000  Level Kansas City Center
Thu 12:49:28 AM 39.8947 -95.4475 83° East 488 562 39,000  Level Kansas City Center
Thu 12:50:29 AM 39.9106 -95.2808 83° East 485 558 39,000  Level Kansas City Center
Thu 12:51:29 AM 39.9267 -95.1142 83° East 483 556 39,000  Level Kansas City Center
Thu 12:52:30 AM 39.9447 -94.9200 83° East 482 555 39,000  Level Kansas City Center
Thu 12:53:31 AM 39.9594 -94.7542 83° East 480 552 39,000  Level Kansas City Center
Thu 12:54:32 AM 39.9739 -94.5875 83° East 482 555 39,000  Level Kansas City Center
Thu 12:55:33 AM 39.9917 -94.3944 83° East 480 552 39,000  Level Kansas City Center
Thu 12:56:33 AM 40.0061 -94.2278 83° East 482 555 39,000  Level Kansas City Center
Thu 12:57:34 AM 40.0181 -94.0750 84° East 484 557 39,000  Level Kansas City Center
Thu 12:58:35 AM 40.0350 -93.8653 84° East 488 562 39,000  Level Kansas City Center
Thu 12:59:36 AM 40.0478 -93.6908 84° East 487 560 39,000  Level Kansas City Center
Thu 01:00:36 AM 40.0628 -93.5189 83° East 483 556 39,000  Level Kansas City Center
Thu 01:01:37 AM 40.0767 -93.3433 84° East 488 562 39,000  Level Kansas City Center
Thu 01:02:38 AM 40.0908 -93.1706 84° East 486 559 39,000  Level Kansas City Center
Thu 01:03:39 AM 40.1042 -92.9931 84° East 490 564 39,000  Level Kansas City Center
Thu 01:04:39 AM 40.1189 -92.7967 84° East 487 560 39,000  Level Kansas City Center
Thu 01:05:40 AM 40.1300 -92.6275 85° East 487 560 39,000  Level Kansas City Center
Thu 01:06:40 AM 40.1517 -92.4600 80° East 488 562 39,000  Level Kansas City Center
Thu 01:07:41 AM 40.1994 -92.2819 71° East 491 565 39,000  Level Kansas City Center
Thu 01:08:42 AM 40.2328 -92.1147 75° East 484 557 39,000  Level Kansas City Center
Thu 01:09:42 AM 40.2675 -91.9483 75° East 481 554 39,000  Level Kansas City Center
Thu 01:10:43 AM 40.3008 -91.7819 75° East 479 551 39,000  Level Kansas City Center
Thu 01:11:44 AM 40.3350 -91.6150 75° East 478 550 39,000  Level Kansas City Center
Thu 01:12:44 AM 40.3944 -91.4597 63° Northeast 480 552 39,000  Level Kansas City Center
Thu 01:13:45 AM 40.4556 -91.3061 62° Northeast 480 552 39,000  Level Kansas City Center
Thu 01:14:45 AM 40.5144 -91.1514 63° Northeast 482 555 39,000  Level Kansas City Center
Thu 01:15:46 AM 40.5739 -90.9936 64° Northeast 482 555 39,000  Level Kansas City Center
Thu 01:16:46 AM 40.6344 -90.8353 63° Northeast 483 556 39,000  Level Kansas City Center
Thu 01:17:47 AM 40.7064 -90.6431 64° Northeast 485 558 39,000  Level Kansas City Center
Thu 01:18:47 AM 40.7672 -90.4842 63° Northeast 485 558 39,000 -1,190 Level Kansas City Center
Thu 01:19:48 AM 40.8272 -90.3228 64° Northeast 486 559 36,600 -2,777 Descending Kansas City Center
Thu 01:20:48 AM 40.8881 -90.1597 64° Northeast 489 563 33,400 -3,481 Descending Kansas City Center
Thu 01:21:59 AM 40.9597 -89.9675 64° Northeast 489 563 29,000 -3,252 Descending Chicago Center
Thu 01:22:59 AM 41.0081 -89.8319 65° Northeast 485 558 26,300 -2,727 Descending Chicago Center
Thu 01:24:00 AM 41.0647 -89.6767 64° Northeast 463 533 23,500 -2,678 Descending Chicago Center
Thu 01:25:00 AM 41.1194 -89.5253 64° Northeast 453 521 20,900 -2,550 Descending Chicago Center
Thu 01:26:00 AM 41.1725 -89.3808 64° Northeast 440 506 18,400 -2,579 Descending Chicago Center
Thu 01:27:01 AM 41.2214 -89.2417 65° Northeast 422 486 15,700 -2,727 Descending Chicago Center
Thu 01:28:01 AM 41.2750 -89.0908 65° Northeast 410 472 12,900 -2,380 Descending Chicago Center
Thu 01:29:02 AM 41.3197 -88.9642 65° Northeast 388 447 10,900 -1,289 Descending Chicago Center
Thu 01:30:02 AM 41.3592 -88.8514 65° Northeast 344 396 10,300 -800 Descending Chicago Center
Thu 01:31:02 AM 41.3933 -88.7531 65° Northeast 299 344 9,300 -1,339 Descending Chicago Center
Thu 01:32:03 AM 41.4297 -88.6550 64° Northeast 296 341 7,600 -1,537 Descending Chicago Center
Thu 01:33:03 AM 41.4547 -88.5550 72° East 288 331 6,200 -750 Descending Chicago Center
Thu 01:34:03 AM 41.4725 -88.4528 77° East 286 329 6,100 -694 Descending Chicago Center
Thu 01:35:04 AM 41.4892 -88.3522 77° East 281 323 4,800 -992 Descending Chicago Center
Thu 01:36:04 AM 41.5067 -88.2508 77° East 281 323 4,100 -350 Descending Chicago Center
Thu 01:37:04 AM 41.5236 -88.1525 77° East 275 316 4,100  Level Chicago Center
Thu 01:38:05 AM 41.5411 -88.0528 77° East 274 315 4,100 -545 Level Chicago Center
Thu 01:39:05 AM 41.5586 -87.9542 77° East 272 313 3,000 -750 Descending Chicago Center
Thu 01:40:05 AM 41.5744 -87.8619 77° East 264 304 2,600 -198 Descending Chicago Center
Thu 01:41:06 AM 41.5900 -87.7744 77° East 254 292 2,600  Level Chicago Center
Thu 01:42:06 AM 41.6397 -87.7256 36° Northeast 233 268 2,600 -50 Level Chicago Center
Thu 01:43:06 AM 41.6883 -87.6800 35° Northeast 224 258 2,500 -298 Descending Chicago Center
Thu 01:44:07 AM 41.7333 -87.6831 357° North 186 214 2,000 -595 Descending Chicago Center
Thu 01:45:07 AM 41.7603 -87.7183 316° Northwest 153 176 1,300 -500 Descending Chicago Center
Thu 01:46:07 AM 41.7900 -87.7581 315° West 146 168 1,000 -300 Descending Chicago Center

Login

Don't have an account? Register now (free) for customized features, flight alerts, and more!